sensor_id;sensor_type;location;lat;lon;timestamp;P1;durP1;ratioP1;P2;durP2;ratioP2
53646;SDS011;39550;52.230;5.194;2023-04-28T00:01:44;6.97;;;4.97;;
53646;SDS011;39550;52.230;5.194;2023-04-28T00:04:10;7.07;;;4.97;;
53646;SDS011;39550;52.230;5.194;2023-04-28T00:06:35;7.45;;;5.05;;
53646;SDS011;39550;52.230;5.194;2023-04-28T00:09:01;7.05;;;4.68;;
53646;SDS011;39550;52.230;5.194;2023-04-28T00:11:27;8.00;;;5.10;;
53646;SDS011;39550;52.230;5.194;2023-04-28T00:13:52;6.50;;;4.85;;
53646;SDS011;39550;52.230;5.194;2023-04-28T00:16:18;7.43;;;4.80;;
53646;SDS011;39550;52.230;5.194;2023-04-28T00:18:43;9.65;;;4.95;;
53646;SDS011;39550;52.230;5.194;2023-04-28T00:21:08;6.68;;;5.15;;
53646;SDS011;39550;52.230;5.194;2023-04-28T00:23:34;6.15;;;4.18;;
53646;SDS011;39550;52.230;5.194;2023-04-28T00:25:59;6.38;;;4.88;;
53646;SDS011;39550;52.230;5.194;2023-04-28T00:28:24;6.82;;;4.95;;
53646;SDS011;39550;52.230;5.194;2023-04-28T00:30:51;7.72;;;5.32;;
53646;SDS011;39550;52.230;5.194;2023-04-28T00:33:16;7.60;;;5.35;;
53646;SDS011;39550;52.230;5.194;2023-04-28T00:35:42;8.55;;;4.60;;
53646;SDS011;39550;52.230;5.194;2023-04-28T00:38:07;6.75;;;4.60;;
53646;SDS011;39550;52.230;5.194;2023-04-28T00:40:33;6.63;;;4.80;;
53646;SDS011;39550;52.230;5.194;2023-04-28T00:43:02;6.68;;;4.18;;
53646;SDS011;39550;52.230;5.194;2023-04-28T00:45:28;9.88;;;5.35;;
53646;SDS011;39550;52.230;5.194;2023-04-28T00:47:54;8.45;;;4.93;;
53646;SDS011;39550;52.230;5.194;2023-04-28T00:50:22;6.75;;;4.53;;
53646;SDS011;39550;52.230;5.194;2023-04-28T00:52:50;6.85;;;4.93;;
53646;SDS011;39550;52.230;5.194;2023-04-28T00:55:17;7.63;;;4.57;;
53646;SDS011;39550;52.230;5.194;2023-04-28T00:57:43;6.25;;;4.55;;
53646;SDS011;39550;52.230;5.194;2023-04-28T01:00:09;6.20;;;4.40;;
53646;SDS011;39550;52.230;5.194;2023-04-28T01:02:35;7.35;;;4.68;;
53646;SDS011;39550;52.230;5.194;2023-04-28T01:05:00;7.40;;;4.78;;
53646;SDS011;39550;52.230;5.194;2023-04-28T01:07:26;6.25;;;4.72;;
53646;SDS011;39550;52.230;5.194;2023-04-28T01:09:52;8.25;;;4.90;;
53646;SDS011;39550;52.230;5.194;2023-04-28T01:12:18;7.53;;;4.68;;
53646;SDS011;39550;52.230;5.194;2023-04-28T01:14:43;6.20;;;4.60;;
53646;SDS011;39550;52.230;5.194;2023-04-28T01:17:09;6.32;;;4.20;;
53646;SDS011;39550;52.230;5.194;2023-04-28T01:19:35;6.03;;;4.63;;
53646;SDS011;39550;52.230;5.194;2023-04-28T01:22:00;8.25;;;4.60;;
53646;SDS011;39550;52.230;5.194;2023-04-28T01:24:26;9.95;;;4.80;;
53646;SDS011;39550;52.230;5.194;2023-04-28T01:26:51;6.30;;;4.70;;
53646;SDS011;39550;52.230;5.194;2023-04-28T01:29:16;6.32;;;4.43;;
53646;SDS011;39550;52.230;5.194;2023-04-28T01:31:42;6.35;;;5.00;;
53646;SDS011;39550;52.230;5.194;2023-04-28T01:34:07;7.05;;;4.70;;
53646;SDS011;39550;52.230;5.194;2023-04-28T01:36:33;5.97;;;4.07;;
53646;SDS011;39550;52.230;5.194;2023-04-28T01:38:58;8.68;;;4.32;;
53646;SDS011;39550;52.230;5.194;2023-04-28T01:41:23;6.78;;;4.47;;
53646;SDS011;39550;52.230;5.194;2023-04-28T01:43:49;8.05;;;4.78;;
53646;SDS011;39550;52.230;5.194;2023-04-28T01:46:14;6.38;;;4.50;;
53646;SDS011;39550;52.230;5.194;2023-04-28T01:48:40;7.25;;;4.85;;
53646;SDS011;39550;52.230;5.194;2023-04-28T01:51:05;6.85;;;4.38;;
53646;SDS011;39550;52.230;5.194;2023-04-28T01:53:30;6.70;;;4.72;;
53646;SDS011;39550;52.230;5.194;2023-04-28T01:55:58;6.65;;;4.78;;
53646;SDS011;39550;52.230;5.194;2023-04-28T01:58:24;6.82;;;4.90;;
53646;SDS011;39550;52.230;5.194;2023-04-28T02:00:49;6.32;;;4.00;;
53646;SDS011;39550;52.230;5.194;2023-04-28T02:03:15;6.85;;;4.80;;
53646;SDS011;39550;52.230;5.194;2023-04-28T02:05:40;5.80;;;4.50;;
53646;SDS011;39550;52.230;5.194;2023-04-28T02:08:05;6.20;;;4.20;;
53646;SDS011;39550;52.230;5.194;2023-04-28T02:10:31;7.65;;;4.55;;
53646;SDS011;39550;52.230;5.194;2023-04-28T02:12:56;7.63;;;5.20;;
53646;SDS011;39550;52.230;5.194;2023-04-28T02:15:21;8.07;;;4.45;;
53646;SDS011;39550;52.230;5.194;2023-04-28T02:17:47;7.32;;;4.85;;
53646;SDS011;39550;52.230;5.194;2023-04-28T02:20:12;7.15;;;4.32;;
53646;SDS011;39550;52.230;5.194;2023-04-28T02:22:40;6.43;;;4.30;;
53646;SDS011;39550;52.230;5.194;2023-04-28T02:25:06;6.10;;;4.57;;
53646;SDS011;39550;52.230;5.194;2023-04-28T02:27:33;6.32;;;4.10;;
53646;SDS011;39550;52.230;5.194;2023-04-28T02:30:00;6.72;;;4.65;;
53646;SDS011;39550;52.230;5.194;2023-04-28T02:32:26;6.70;;;4.43;;
53646;SDS011;39550;52.230;5.194;2023-04-28T02:34:52;6.50;;;4.50;;
53646;SDS011;39550;52.230;5.194;2023-04-28T02:37:19;6.32;;;4.32;;
53646;SDS011;39550;52.230;5.194;2023-04-28T02:39:45;6.07;;;4.07;;
53646;SDS011;39550;52.230;5.194;2023-04-28T02:42:10;5.80;;;4.50;;
53646;SDS011;39550;52.230;5.194;2023-04-28T02:44:35;5.95;;;4.40;;
53646;SDS011;39550;52.230;5.194;2023-04-28T02:47:01;7.13;;;4.30;;
53646;SDS011;39550;52.230;5.194;2023-04-28T02:49:26;6.57;;;4.63;;
53646;SDS011;39550;52.230;5.194;2023-04-28T02:51:51;7.43;;;4.90;;
53646;SDS011;39550;52.230;5.194;2023-04-28T02:54:17;6.30;;;4.55;;
53646;SDS011;39550;52.230;5.194;2023-04-28T02:56:51;7.38;;;4.22;;
53646;SDS011;39550;52.230;5.194;2023-04-28T02:59:17;6.57;;;4.35;;
53646;SDS011;39550;52.230;5.194;2023-04-28T03:01:42;6.72;;;4.00;;
53646;SDS011;39550;52.230;5.194;2023-04-28T03:04:07;8.02;;;4.63;;
53646;SDS011;39550;52.230;5.194;2023-04-28T03:06:33;6.95;;;4.53;;
53646;SDS011;39550;52.230;5.194;2023-04-28T03:08:58;6.78;;;4.60;;
53646;SDS011;39550;52.230;5.194;2023-04-28T03:11:23;7.35;;;5.07;;
53646;SDS011;39550;52.230;5.194;2023-04-28T03:13:49;6.38;;;4.50;;
53646;SDS011;39550;52.230;5.194;2023-04-28T03:16:14;6.38;;;4.47;;
53646;SDS011;39550;52.230;5.194;2023-04-28T03:18:40;5.95;;;4.20;;
53646;SDS011;39550;52.230;5.194;2023-04-28T03:21:05;6.20;;;4.22;;
53646;SDS011;39550;52.230;5.194;2023-04-28T03:23:31;6.07;;;4.30;;
53646;SDS011;39550;52.230;5.194;2023-04-28T03:25:56;6.57;;;4.40;;
53646;SDS011;39550;52.230;5.194;2023-04-28T03:28:21;7.25;;;4.72;;
53646;SDS011;39550;52.230;5.194;2023-04-28T03:30:47;7.72;;;4.75;;
53646;SDS011;39550;52.230;5.194;2023-04-28T03:33:12;6.05;;;4.57;;
53646;SDS011;39550;52.230;5.194;2023-04-28T03:35:38;6.63;;;4.78;;
53646;SDS011;39550;52.230;5.194;2023-04-28T03:38:03;7.43;;;4.50;;
53646;SDS011;39550;52.230;5.194;2023-04-28T03:40:28;7.72;;;5.28;;
53646;SDS011;39550;52.230;5.194;2023-04-28T03:42:54;5.82;;;4.15;;
53646;SDS011;39550;52.230;5.194;2023-04-28T03:45:19;6.78;;;4.70;;
53646;SDS011;39550;52.230;5.194;2023-04-28T03:47:44;5.72;;;4.43;;
53646;SDS011;39550;52.230;5.194;2023-04-28T03:50:10;6.95;;;4.30;;
53646;SDS011;39550;52.230;5.194;2023-04-28T03:52:35;6.32;;;4.25;;
53646;SDS011;39550;52.230;5.194;2023-04-28T03:55:00;7.03;;;4.93;;
53646;SDS011;39550;52.230;5.194;2023-04-28T03:57:26;11.32;;;5.22;;
53646;SDS011;39550;52.230;5.194;2023-04-28T03:59:51;5.93;;;4.10;;
53646;SDS011;39550;52.230;5.194;2023-04-28T04:02:16;7.55;;;5.05;;
53646;SDS011;39550;52.230;5.194;2023-04-28T04:04:41;6.80;;;4.60;;
53646;SDS011;39550;52.230;5.194;2023-04-28T04:07:07;7.80;;;4.47;;
53646;SDS011;39550;52.230;5.194;2023-04-28T04:09:32;6.72;;;4.57;;
53646;SDS011;39550;52.230;5.194;2023-04-28T04:11:58;6.05;;;4.47;;
53646;SDS011;39550;52.230;5.194;2023-04-28T04:14:25;7.18;;;4.93;;
53646;SDS011;39550;52.230;5.194;2023-04-28T04:16:50;7.40;;;4.55;;
53646;SDS011;39550;52.230;5.194;2023-04-28T04:19:15;6.90;;;4.28;;
53646;SDS011;39550;52.230;5.194;2023-04-28T04:21:41;6.00;;;4.40;;
53646;SDS011;39550;52.230;5.194;2023-04-28T04:24:06;7.70;;;4.30;;
53646;SDS011;39550;52.230;5.194;2023-04-28T04:26:31;7.88;;;4.88;;
53646;SDS011;39550;52.230;5.194;2023-04-28T04:28:57;6.07;;;4.45;;
53646;SDS011;39550;52.230;5.194;2023-04-28T04:31:22;7.53;;;4.03;;
53646;SDS011;39550;52.230;5.194;2023-04-28T04:33:48;7.10;;;4.57;;
53646;SDS011;39550;52.230;5.194;2023-04-28T04:36:13;6.72;;;4.25;;
53646;SDS011;39550;52.230;5.194;2023-04-28T04:38:38;7.70;;;4.80;;
53646;SDS011;39550;52.230;5.194;2023-04-28T04:41:04;7.60;;;4.65;;
53646;SDS011;39550;52.230;5.194;2023-04-28T04:43:29;6.20;;;4.32;;
53646;SDS011;39550;52.230;5.194;2023-04-28T04:45:54;7.07;;;4.43;;
53646;SDS011;39550;52.230;5.194;2023-04-28T04:48:20;6.43;;;4.50;;
53646;SDS011;39550;52.230;5.194;2023-04-28T04:50:45;6.43;;;4.22;;
53646;SDS011;39550;52.230;5.194;2023-04-28T04:53:11;6.00;;;4.13;;
53646;SDS011;39550;52.230;5.194;2023-04-28T04:55:36;8.27;;;4.38;;
53646;SDS011;39550;52.230;5.194;2023-04-28T04:58:02;7.28;;;4.38;;
53646;SDS011;39550;52.230;5.194;2023-04-28T05:00:27;7.25;;;4.43;;
53646;SDS011;39550;52.230;5.194;2023-04-28T05:02:53;6.78;;;4.60;;
53646;SDS011;39550;52.230;5.194;2023-04-28T05:05:18;7.00;;;4.57;;
53646;SDS011;39550;52.230;5.194;2023-04-28T05:07:43;7.07;;;4.93;;
53646;SDS011;39550;52.230;5.194;2023-04-28T05:10:09;6.57;;;4.07;;
53646;SDS011;39550;52.230;5.194;2023-04-28T05:12:35;7.50;;;4.32;;
53646;SDS011;39550;52.230;5.194;2023-04-28T05:15:01;6.95;;;4.47;;
53646;SDS011;39550;52.230;5.194;2023-04-28T05:17:27;7.97;;;4.80;;
53646;SDS011;39550;52.230;5.194;2023-04-28T05:19:52;7.20;;;4.47;;
53646;SDS011;39550;52.230;5.194;2023-04-28T05:22:17;8.32;;;4.68;;
53646;SDS011;39550;52.230;5.194;2023-04-28T05:24:43;6.57;;;4.82;;
53646;SDS011;39550;52.230;5.194;2023-04-28T05:27:08;7.97;;;4.75;;
53646;SDS011;39550;52.230;5.194;2023-04-28T05:29:33;6.63;;;4.57;;
53646;SDS011;39550;52.230;5.194;2023-04-28T05:32:01;7.55;;;4.97;;
53646;SDS011;39550;52.230;5.194;2023-04-28T05:34:27;7.10;;;4.68;;
53646;SDS011;39550;52.230;5.194;2023-04-28T05:36:52;7.50;;;4.97;;
53646;SDS011;39550;52.230;5.194;2023-04-28T05:39:18;7.50;;;4.68;;
53646;SDS011;39550;52.230;5.194;2023-04-28T05:41:43;6.78;;;4.47;;
53646;SDS011;39550;52.230;5.194;2023-04-28T05:44:08;7.03;;;4.57;;
53646;SDS011;39550;52.230;5.194;2023-04-28T05:46:34;7.68;;;4.55;;
53646;SDS011;39550;52.230;5.194;2023-04-28T05:49:00;7.28;;;5.18;;
53646;SDS011;39550;52.230;5.194;2023-04-28T05:51:26;7.95;;;4.60;;
53646;SDS011;39550;52.230;5.194;2023-04-28T05:53:51;5.97;;;4.50;;
53646;SDS011;39550;52.230;5.194;2023-04-28T05:56:16;6.60;;;4.80;;
53646;SDS011;39550;52.230;5.194;2023-04-28T05:58:42;7.25;;;3.95;;
53646;SDS011;39550;52.230;5.194;2023-04-28T06:03:37;7.35;;;4.38;;
53646;SDS011;39550;52.230;5.194;2023-04-28T06:06:04;6.95;;;4.65;;
53646;SDS011;39550;52.230;5.194;2023-04-28T06:08:30;7.45;;;4.35;;
53646;SDS011;39550;52.230;5.194;2023-04-28T06:10:55;7.00;;;4.68;;
53646;SDS011;39550;52.230;5.194;2023-04-28T06:13:21;7.25;;;4.63;;
53646;SDS011;39550;52.230;5.194;2023-04-28T06:15:46;7.07;;;4.78;;
53646;SDS011;39550;52.230;5.194;2023-04-28T06:18:11;7.32;;;4.85;;
53646;SDS011;39550;52.230;5.194;2023-04-28T06:20:37;7.43;;;4.68;;
53646;SDS011;39550;52.230;5.194;2023-04-28T06:23:02;8.43;;;4.85;;
53646;SDS011;39550;52.230;5.194;2023-04-28T06:25:27;8.05;;;5.30;;
53646;SDS011;39550;52.230;5.194;2023-04-28T06:27:53;9.15;;;5.53;;
53646;SDS011;39550;52.230;5.194;2023-04-28T06:30:20;7.45;;;4.93;;
53646;SDS011;39550;52.230;5.194;2023-04-28T06:32:47;9.18;;;5.30;;
53646;SDS011;39550;52.230;5.194;2023-04-28T06:35:12;8.13;;;5.45;;
53646;SDS011;39550;52.230;5.194;2023-04-28T06:37:39;6.95;;;4.90;;
53646;SDS011;39550;52.230;5.194;2023-04-28T06:40:08;8.10;;;5.43;;
53646;SDS011;39550;52.230;5.194;2023-04-28T06:42:34;7.57;;;6.00;;
53646;SDS011;39550;52.230;5.194;2023-04-28T06:44:59;9.70;;;5.28;;
53646;SDS011;39550;52.230;5.194;2023-04-28T06:47:25;8.35;;;5.35;;
53646;SDS011;39550;52.230;5.194;2023-04-28T06:49:50;7.18;;;5.22;;
53646;SDS011;39550;52.230;5.194;2023-04-28T06:52:16;8.85;;;5.50;;
53646;SDS011;39550;52.230;5.194;2023-04-28T06:54:41;9.70;;;5.43;;
53646;SDS011;39550;52.230;5.194;2023-04-28T06:57:07;7.53;;;5.22;;
53646;SDS011;39550;52.230;5.194;2023-04-28T06:59:32;7.75;;;5.55;;
53646;SDS011;39550;52.230;5.194;2023-04-28T07:01:58;7.75;;;5.53;;
53646;SDS011;39550;52.230;5.194;2023-04-28T07:04:24;9.10;;;5.75;;
53646;SDS011;39550;52.230;5.194;2023-04-28T07:06:49;9.20;;;5.88;;
53646;SDS011;39550;52.230;5.194;2023-04-28T07:09:14;8.52;;;6.50;;
53646;SDS011;39550;52.230;5.194;2023-04-28T07:11:41;10.93;;;6.07;;
53646;SDS011;39550;52.230;5.194;2023-04-28T07:14:06;7.65;;;5.93;;
53646;SDS011;39550;52.230;5.194;2023-04-28T07:16:32;9.40;;;5.88;;
53646;SDS011;39550;52.230;5.194;2023-04-28T07:18:58;10.27;;;6.93;;
53646;SDS011;39550;52.230;5.194;2023-04-28T07:21:23;8.77;;;6.50;;
53646;SDS011;39550;52.230;5.194;2023-04-28T07:23:48;9.38;;;6.10;;
53646;SDS011;39550;52.230;5.194;2023-04-28T07:26:14;8.75;;;5.65;;
53646;SDS011;39550;52.230;5.194;2023-04-28T07:28:40;10.45;;;6.43;;
53646;SDS011;39550;52.230;5.194;2023-04-28T07:31:06;10.98;;;5.90;;
53646;SDS011;39550;52.230;5.194;2023-04-28T07:33:32;7.68;;;5.80;;
53646;SDS011;39550;52.230;5.194;2023-04-28T07:35:57;8.32;;;5.78;;
53646;SDS011;39550;52.230;5.194;2023-04-28T07:38:22;11.75;;;6.85;;
53646;SDS011;39550;52.230;5.194;2023-04-28T07:40:48;8.77;;;6.13;;
53646;SDS011;39550;52.230;5.194;2023-04-28T07:43:13;8.65;;;5.97;;
53646;SDS011;39550;52.230;5.194;2023-04-28T07:45:39;9.15;;;6.65;;
53646;SDS011;39550;52.230;5.194;2023-04-28T07:48:04;9.18;;;6.40;;
53646;SDS011;39550;52.230;5.194;2023-04-28T07:50:30;8.73;;;6.13;;
53646;SDS011;39550;52.230;5.194;2023-04-28T07:52:59;12.18;;;7.53;;
53646;SDS011;39550;52.230;5.194;2023-04-28T07:55:24;9.38;;;6.93;;
53646;SDS011;39550;52.230;5.194;2023-04-28T07:57:49;10.75;;;7.22;;
53646;SDS011;39550;52.230;5.194;2023-04-28T08:00:15;9.45;;;6.97;;
53646;SDS011;39550;52.230;5.194;2023-04-28T08:02:41;9.60;;;7.25;;
53646;SDS011;39550;52.230;5.194;2023-04-28T08:05:06;11.45;;;7.60;;
53646;SDS011;39550;52.230;5.194;2023-04-28T08:07:33;9.68;;;6.85;;
53646;SDS011;39550;52.230;5.194;2023-04-28T08:09:59;9.32;;;7.13;;
53646;SDS011;39550;52.230;5.194;2023-04-28T08:12:25;9.10;;;7.18;;
53646;SDS011;39550;52.230;5.194;2023-04-28T08:14:50;10.27;;;6.82;;
53646;SDS011;39550;52.230;5.194;2023-04-28T08:17:16;8.93;;;6.47;;
53646;SDS011;39550;52.230;5.194;2023-04-28T08:19:42;10.02;;;7.60;;
53646;SDS011;39550;52.230;5.194;2023-04-28T08:22:10;8.57;;;6.70;;
53646;SDS011;39550;52.230;5.194;2023-04-28T08:24:35;9.68;;;7.78;;
53646;SDS011;39550;52.230;5.194;2023-04-28T08:27:01;9.65;;;7.03;;
53646;SDS011;39550;52.230;5.194;2023-04-28T08:29:27;10.00;;;7.55;;
53646;SDS011;39550;52.230;5.194;2023-04-28T08:31:56;9.30;;;7.15;;
53646;SDS011;39550;52.230;5.194;2023-04-28T08:34:22;9.98;;;7.25;;
53646;SDS011;39550;52.230;5.194;2023-04-28T08:36:47;9.85;;;7.47;;
53646;SDS011;39550;52.230;5.194;2023-04-28T08:39:13;13.23;;;7.40;;
53646;SDS011;39550;52.230;5.194;2023-04-28T08:41:38;10.00;;;7.22;;
53646;SDS011;39550;52.230;5.194;2023-04-28T08:44:07;11.30;;;8.50;;
53646;SDS011;39550;52.230;5.194;2023-04-28T08:46:35;11.35;;;8.27;;
53646;SDS011;39550;52.230;5.194;2023-04-28T08:49:11;10.18;;;7.45;;
53646;SDS011;39550;52.230;5.194;2023-04-28T08:51:49;9.20;;;7.07;;
53646;SDS011;39550;52.230;5.194;2023-04-28T08:54:16;10.57;;;7.70;;
53646;SDS011;39550;52.230;5.194;2023-04-28T08:56:43;10.73;;;7.80;;
53646;SDS011;39550;52.230;5.194;2023-04-28T08:59:10;11.30;;;7.30;;
53646;SDS011;39550;52.230;5.194;2023-04-28T09:01:36;9.80;;;7.70;;
53646;SDS011;39550;52.230;5.194;2023-04-28T09:04:02;11.25;;;7.68;;
53646;SDS011;39550;52.230;5.194;2023-04-28T09:06:31;9.75;;;7.20;;
53646;SDS011;39550;52.230;5.194;2023-04-28T09:11:54;10.40;;;7.30;;
53646;SDS011;39550;52.230;5.194;2023-04-28T09:14:23;9.65;;;7.35;;
53646;SDS011;39550;52.230;5.194;2023-04-28T09:16:49;10.43;;;7.47;;
53646;SDS011;39550;52.230;5.194;2023-04-28T09:19:15;9.40;;;6.63;;
53646;SDS011;39550;52.230;5.194;2023-04-28T09:21:48;10.68;;;6.95;;
53646;SDS011;39550;52.230;5.194;2023-04-28T09:26:50;11.27;;;7.55;;
53646;SDS011;39550;52.230;5.194;2023-04-28T09:29:15;11.55;;;9.43;;
53646;SDS011;39550;52.230;5.194;2023-04-28T09:31:40;12.00;;;7.85;;
53646;SDS011;39550;52.230;5.194;2023-04-28T09:34:07;11.02;;;8.40;;
53646;SDS011;39550;52.230;5.194;2023-04-28T09:36:33;12.52;;;8.57;;
53646;SDS011;39550;52.230;5.194;2023-04-28T09:38:59;12.65;;;7.93;;
53646;SDS011;39550;52.230;5.194;2023-04-28T09:41:35;12.45;;;8.48;;
53646;SDS011;39550;52.230;5.194;2023-04-28T09:46:40;13.10;;;10.00;;
53646;SDS011;39550;52.230;5.194;2023-04-28T09:49:06;10.73;;;9.02;;
53646;SDS011;39550;52.230;5.194;2023-04-28T09:51:32;13.80;;;8.13;;
53646;SDS011;39550;52.230;5.194;2023-04-28T09:53:59;10.85;;;7.90;;
53646;SDS011;39550;52.230;5.194;2023-04-28T09:56:26;10.80;;;8.07;;
53646;SDS011;39550;52.230;5.194;2023-04-28T09:58:54;13.07;;;9.35;;
53646;SDS011;39550;52.230;5.194;2023-04-28T10:01:21;11.02;;;8.25;;
53646;SDS011;39550;52.230;5.194;2023-04-28T10:03:48;10.43;;;7.72;;
53646;SDS011;39550;52.230;5.194;2023-04-28T10:06:14;12.82;;;8.48;;
53646;SDS011;39550;52.230;5.194;2023-04-28T10:08:40;11.63;;;8.18;;
53646;SDS011;39550;52.230;5.194;2023-04-28T10:11:05;9.45;;;7.63;;
53646;SDS011;39550;52.230;5.194;2023-04-28T10:13:34;11.05;;;7.72;;
53646;SDS011;39550;52.230;5.194;2023-04-28T10:16:03;10.82;;;8.25;;
53646;SDS011;39550;52.230;5.194;2023-04-28T10:18:29;10.93;;;7.63;;
53646;SDS011;39550;52.230;5.194;2023-04-28T10:20:56;11.35;;;8.55;;
53646;SDS011;39550;52.230;5.194;2023-04-28T10:26:12;10.80;;;8.23;;
53646;SDS011;39550;52.230;5.194;2023-04-28T10:28:43;13.90;;;8.25;;
53646;SDS011;39550;52.230;5.194;2023-04-28T10:31:14;9.52;;;7.72;;
53646;SDS011;39550;52.230;5.194;2023-04-28T10:33:42;9.77;;;7.35;;
53646;SDS011;39550;52.230;5.194;2023-04-28T10:36:08;10.23;;;7.40;;
53646;SDS011;39550;52.230;5.194;2023-04-28T10:38:33;9.90;;;7.78;;
53646;SDS011;39550;52.230;5.194;2023-04-28T10:41:00;9.20;;;7.45;;
53646;SDS011;39550;52.230;5.194;2023-04-28T10:56:18;11.30;;;7.80;;
53646;SDS011;39550;52.230;5.194;2023-04-28T10:58:44;8.43;;;6.38;;
53646;SDS011;39550;52.230;5.194;2023-04-28T11:04:05;10.15;;;7.10;;
53646;SDS011;39550;52.230;5.194;2023-04-28T11:06:38;10.00;;;7.50;;
53646;SDS011;39550;52.230;5.194;2023-04-28T11:11:39;11.25;;;7.30;;
53646;SDS011;39550;52.230;5.194;2023-04-28T11:16:56;9.60;;;7.32;;
53646;SDS011;39550;52.230;5.194;2023-04-28T11:19:34;8.98;;;7.28;;
53646;SDS011;39550;52.230;5.194;2023-04-28T11:22:02;9.48;;;6.72;;
53646;SDS011;39550;52.230;5.194;2023-04-28T11:24:34;9.52;;;7.47;;
53646;SDS011;39550;52.230;5.194;2023-04-28T11:26:59;9.05;;;6.72;;
53646;SDS011;39550;52.230;5.194;2023-04-28T11:29:37;9.18;;;7.50;;
53646;SDS011;39550;52.230;5.194;2023-04-28T11:32:05;10.20;;;7.53;;
53646;SDS011;39550;52.230;5.194;2023-04-28T11:34:34;10.05;;;7.20;;
53646;SDS011;39550;52.230;5.194;2023-04-28T11:37:00;9.63;;;7.47;;
53646;SDS011;39550;52.230;5.194;2023-04-28T11:39:27;10.77;;;7.30;;
53646;SDS011;39550;52.230;5.194;2023-04-28T11:42:07;8.65;;;6.40;;
53646;SDS011;39550;52.230;5.194;2023-04-28T11:44:34;8.73;;;7.22;;
53646;SDS011;39550;52.230;5.194;2023-04-28T11:47:00;9.07;;;7.25;;
53646;SDS011;39550;52.230;5.194;2023-04-28T11:49:27;9.27;;;7.05;;
53646;SDS011;39550;52.230;5.194;2023-04-28T11:51:54;9.75;;;6.90;;
53646;SDS011;39550;52.230;5.194;2023-04-28T11:54:30;9.80;;;6.82;;
53646;SDS011;39550;52.230;5.194;2023-04-28T11:56:57;10.63;;;6.75;;
53646;SDS011;39550;52.230;5.194;2023-04-28T11:59:24;9.00;;;6.80;;
53646;SDS011;39550;52.230;5.194;2023-04-28T12:01:51;9.93;;;6.97;;
53646;SDS011;39550;52.230;5.194;2023-04-28T12:04:45;8.82;;;6.65;;
53646;SDS011;39550;52.230;5.194;2023-04-28T12:07:14;8.57;;;6.55;;
53646;SDS011;39550;52.230;5.194;2023-04-28T12:09:44;8.25;;;6.40;;
53646;SDS011;39550;52.230;5.194;2023-04-28T12:12:14;8.80;;;6.30;;
53646;SDS011;39550;52.230;5.194;2023-04-28T12:14:56;9.02;;;6.75;;
53646;SDS011;39550;52.230;5.194;2023-04-28T12:17:29;8.10;;;6.45;;
53646;SDS011;39550;52.230;5.194;2023-04-28T12:19:55;8.25;;;6.43;;
53646;SDS011;39550;52.230;5.194;2023-04-28T12:22:23;9.93;;;6.82;;
53646;SDS011;39550;52.230;5.194;2023-04-28T12:27:34;8.68;;;6.35;;
53646;SDS011;39550;52.230;5.194;2023-04-28T12:30:02;8.77;;;6.25;;
53646;SDS011;39550;52.230;5.194;2023-04-28T12:32:41;8.27;;;6.13;;
53646;SDS011;39550;52.230;5.194;2023-04-28T12:35:10;10.50;;;6.63;;
53646;SDS011;39550;52.230;5.194;2023-04-28T12:37:35;8.40;;;6.20;;
53646;SDS011;39550;52.230;5.194;2023-04-28T12:40:05;8.35;;;6.32;;
53646;SDS011;39550;52.230;5.194;2023-04-28T12:42:32;7.78;;;5.75;;
53646;SDS011;39550;52.230;5.194;2023-04-28T12:44:58;7.68;;;5.93;;
53646;SDS011;39550;52.230;5.194;2023-04-28T12:47:23;7.88;;;5.90;;
53646;SDS011;39550;52.230;5.194;2023-04-28T12:49:48;8.75;;;5.63;;
53646;SDS011;39550;52.230;5.194;2023-04-28T12:52:17;8.32;;;5.97;;
53646;SDS011;39550;52.230;5.194;2023-04-28T12:54:42;7.60;;;5.90;;
53646;SDS011;39550;52.230;5.194;2023-04-28T12:57:11;7.75;;;5.60;;
53646;SDS011;39550;52.230;5.194;2023-04-28T12:59:40;8.07;;;6.25;;
53646;SDS011;39550;52.230;5.194;2023-04-28T13:02:06;7.65;;;5.90;;
53646;SDS011;39550;52.230;5.194;2023-04-28T13:04:35;7.53;;;5.80;;
53646;SDS011;39550;52.230;5.194;2023-04-28T13:10:45;7.20;;;4.97;;
53646;SDS011;39550;52.230;5.194;2023-04-28T13:13:16;7.07;;;5.38;;
53646;SDS011;39550;52.230;5.194;2023-04-28T13:16:17;6.43;;;4.72;;
53646;SDS011;39550;52.230;5.194;2023-04-28T13:22:43;7.10;;;4.82;;
53646;SDS011;39550;52.230;5.194;2023-04-28T13:25:57;5.93;;;4.70;;
53646;SDS011;39550;52.230;5.194;2023-04-28T13:29:04;6.07;;;4.72;;
53646;SDS011;39550;52.230;5.194;2023-04-28T13:32:26;5.97;;;4.13;;
53646;SDS011;39550;52.230;5.194;2023-04-28T13:42:42;5.70;;;4.07;;
53646;SDS011;39550;52.230;5.194;2023-04-28T13:45:10;5.55;;;4.00;;
53646;SDS011;39550;52.230;5.194;2023-04-28T13:47:36;5.35;;;3.58;;
53646;SDS011;39550;52.230;5.194;2023-04-28T13:50:01;5.45;;;3.60;;
53646;SDS011;39550;52.230;5.194;2023-04-28T13:52:27;5.43;;;3.67;;
53646;SDS011;39550;52.230;5.194;2023-04-28T13:54:52;5.35;;;3.42;;
53646;SDS011;39550;52.230;5.194;2023-04-28T13:57:17;5.72;;;3.65;;
53646;SDS011;39550;52.230;5.194;2023-04-28T13:59:43;6.47;;;3.97;;
53646;SDS011;39550;52.230;5.194;2023-04-28T14:02:09;5.45;;;3.80;;
53646;SDS011;39550;52.230;5.194;2023-04-28T14:04:35;5.20;;;3.80;;
53646;SDS011;39550;52.230;5.194;2023-04-28T14:07:01;5.85;;;3.50;;
53646;SDS011;39550;52.230;5.194;2023-04-28T14:09:26;5.15;;;3.58;;
53646;SDS011;39550;52.230;5.194;2023-04-28T14:11:52;5.35;;;3.65;;
53646;SDS011;39550;52.230;5.194;2023-04-28T14:14:20;5.63;;;3.72;;
53646;SDS011;39550;52.230;5.194;2023-04-28T14:16:46;5.85;;;3.95;;
53646;SDS011;39550;52.230;5.194;2023-04-28T14:19:12;6.32;;;4.10;;
53646;SDS011;39550;52.230;5.194;2023-04-28T14:21:41;5.15;;;3.45;;
53646;SDS011;39550;52.230;5.194;2023-04-28T14:24:06;6.38;;;4.82;;
53646;SDS011;39550;52.230;5.194;2023-04-28T14:26:33;7.20;;;4.45;;
53646;SDS011;39550;52.230;5.194;2023-04-28T14:28:59;7.47;;;4.45;;
53646;SDS011;39550;52.230;5.194;2023-04-28T14:31:24;6.72;;;4.55;;
53646;SDS011;39550;52.230;5.194;2023-04-28T14:33:49;7.03;;;4.30;;
53646;SDS011;39550;52.230;5.194;2023-04-28T14:36:15;7.85;;;4.47;;
53646;SDS011;39550;52.230;5.194;2023-04-28T14:38:40;7.68;;;4.97;;
53646;SDS011;39550;52.230;5.194;2023-04-28T14:41:06;8.15;;;4.90;;
53646;SDS011;39550;52.230;5.194;2023-04-28T14:43:31;9.65;;;6.05;;
53646;SDS011;39550;52.230;5.194;2023-04-28T14:45:56;9.98;;;5.78;;
53646;SDS011;39550;52.230;5.194;2023-04-28T14:48:22;8.85;;;6.18;;
53646;SDS011;39550;52.230;5.194;2023-04-28T14:50:48;11.30;;;6.68;;
53646;SDS011;39550;52.230;5.194;2023-04-28T14:53:15;13.05;;;7.60;;
53646;SDS011;39550;52.230;5.194;2023-04-28T14:55:40;13.55;;;8.02;;
53646;SDS011;39550;52.230;5.194;2023-04-28T14:58:06;11.43;;;8.18;;
53646;SDS011;39550;52.230;5.194;2023-04-28T15:00:31;10.40;;;7.05;;
53646;SDS011;39550;52.230;5.194;2023-04-28T15:02:57;12.07;;;7.63;;
53646;SDS011;39550;52.230;5.194;2023-04-28T15:05:22;12.65;;;7.68;;
53646;SDS011;39550;52.230;5.194;2023-04-28T15:07:48;13.48;;;7.72;;
53646;SDS011;39550;52.230;5.194;2023-04-28T15:10:13;14.18;;;8.00;;
53646;SDS011;39550;52.230;5.194;2023-04-28T15:12:39;13.98;;;8.13;;
53646;SDS011;39550;52.230;5.194;2023-04-28T15:15:04;12.70;;;8.02;;
53646;SDS011;39550;52.230;5.194;2023-04-28T15:17:31;16.27;;;9.90;;
53646;SDS011;39550;52.230;5.194;2023-04-28T15:19:56;13.88;;;8.80;;
53646;SDS011;39550;52.230;5.194;2023-04-28T15:22:21;14.63;;;8.45;;
53646;SDS011;39550;52.230;5.194;2023-04-28T15:24:47;13.43;;;8.15;;
53646;SDS011;39550;52.230;5.194;2023-04-28T15:27:12;17.35;;;9.02;;
53646;SDS011;39550;52.230;5.194;2023-04-28T15:29:37;13.52;;;8.93;;
53646;SDS011;39550;52.230;5.194;2023-04-28T15:32:04;14.32;;;8.25;;
53646;SDS011;39550;52.230;5.194;2023-04-28T15:34:29;14.55;;;9.00;;
53646;SDS011;39550;52.230;5.194;2023-04-28T15:36:54;12.52;;;8.98;;